Sensation — C6FM8 — position and weather

sailwx.info

Track history (hours):
 
Tides and Currents Weather Stations Pressure Air Temp Water Temp Dewpoint Dewpoint Depression Visibility Wind Speed Wind Dir Waves Ship Positions

Sensation

Last reported at 2017-Jan-17 03:32 UTC. Time now 2017-Jan-21 04:26 UTC.
Position N 26°19' W 079°28'.

Type: Ship. MMSI: 309697000.

Date/timePositionNaut miles runAvg speedWind from/ knotsBaromVisibWave heightAir tempDewpointWater temp
2017-Jan-17 03:32N 26°19' W 079°28'1211.8
2017-Jan-17 02:32N 26°07' W 079°30'1010.4
2017-Jan-17 01:33N 26°00' W 079°39'1110.7
2017-Jan-17 00:33N 25°55' W 079°49'1111.0
2017-Jan-16 23:33N 25°49' W 079°59'10 9.5
2017-Jan-16 22:34N 25°46' W 080°09'1 1.0
2017-Jan-16 21:33N 25°47' W 080°10'0 0.0
2017-Jan-16 20:33N 25°47' W 080°10'0 0.0
2017-Jan-16 19:32N 25°47' W 080°10'0 0.0
2017-Jan-16 18:32N 25°47' W 080°10'0 0.0
2017-Jan-16 17:31N 25°47' W 080°10'0 0.0
2017-Jan-16 16:31N 25°47' W 080°10'0 0.0
2017-Jan-16 15:31N 25°47' W 080°10'0 0.0
2017-Jan-16 14:30N 25°47' W 080°10'0 0.0
2017-Jan-16 13:33N 25°47' W 080°10'0 0.0
2017-Jan-16 12:33N 25°47' W 080°10'7 7.4
2017-Jan-16 11:33N 25°47' W 080°02'1211.6
2017-Jan-16 10:34N 25°36' W 079°56'48116.0
2017-Jan-15 04:31N 20°44' W 086°51'1515.3
2017-Jan-15 03:33N 20°32' W 086°60'3 3.0
2017-Jan-15 02:32N 20°29' W 086°59'0 0.0
2017-Jan-15 01:32N 20°29' W 086°59'0 0.0
2017-Jan-15 00:32N 20°29' W 086°59'0 0.0
2017-Jan-14 23:25N 20°29' W 086°59'0 0.0
2017-Jan-14 22:31N 20°29' W 086°59'0 0.0
2017-Jan-14 21:33N 20°29' W 086°59'0 0.0
2017-Jan-14 20:33N 20°29' W 086°59'0 0.0
2017-Jan-14 19:32N 20°29' W 086°59'0 0.0
2017-Jan-14 18:29N 20°29' W 086°59'0 0.0
2017-Jan-14 17:29N 20°29' W 086°59'1 0.8
2017-Jan-14 16:33N 20°29' W 086°59'1010.0
2017-Jan-14 15:33N 20°38' W 086°54'48312.4
2017-Jan-13 00:32N 25°19' W 079°48'1313.4
2017-Jan-12 23:33N 25°32' W 079°48'1313.2
2017-Jan-12 22:34N 25°41' W 079°59'1010.5
2017-Jan-12 21:34N 25°46' W 080°09'1 0.8
2017-Jan-12 20:31N 25°47' W 080°10'0 0.0
2017-Jan-12 19:31N 25°47' W 080°10'0 0.0
2017-Jan-12 18:33N 25°47' W 080°10'0 0.0
2017-Jan-12 17:33N 25°47' W 080°10'0 0.0
2017-Jan-12 16:32N 25°47' W 080°10'0 0.0
2017-Jan-12 15:32N 25°47' W 080°10'0 0.0
2017-Jan-12 14:32N 25°47' W 080°10'0 0.0
2017-Jan-12 13:32N 25°47' W 080°10'1 0.8
2017-Jan-12 12:33N 25°47' W 080°11'8 8.1
2017-Jan-12 11:34N 25°47' W 080°02'7 7.1
2017-Jan-12 10:33N 25°42' W 079°56'8 8.3
2017-Jan-12 09:34N 25°43' W 079°47'1110.9
2017-Jan-12 08:33N 25°34' W 079°40'7 3.7
2017-Jan-12 06:33N 25°28' W 079°35'9 8.7
2017-Jan-12 05:33N 25°37' W 079°35'9 8.7
2017-Jan-12 04:33N 25°46' W 079°35'15 0.8
2017-Jan-11 09:33N 26°00' W 079°29'1717.4
2017-Jan-11 08:33N 25°44' W 079°35'32816.0
2017-Jan-10 12:00N 22°36' W 084°30'17714.3 120 / 201025.010.8 21.016.425.8
2017-Jan-09 23:34N 20°40' W 086°55'1211.9
2017-Jan-09 22:33N 20°29' W 086°59'0 0.5
2017-Jan-09 21:32N 20°29' W 086°59'0 0.0
2017-Jan-09 20:31N 20°29' W 086°59'0 0.0
2017-Jan-09 19:31N 20°29' W 086°59'0 0.0
2017-Jan-09 18:34N 20°29' W 086°59'0 0.0
2017-Jan-09 17:33N 20°29' W 086°59'0 0.0
2017-Jan-09 16:33N 20°29' W 086°59'0 0.0
2017-Jan-09 15:32N 20°29' W 086°59'0 0.0
2017-Jan-09 14:32N 20°29' W 086°59'0 0.0
2017-Jan-09 13:31N 20°29' W 086°59'0 0.0
2017-Jan-09 12:33N 20°29' W 086°59'6 5.8
2017-Jan-09 11:34N 20°34' W 086°58'47914.1
2017-Jan-08 01:33N 25°16' W 079°57'1616.1
2017-Jan-08 00:34N 25°32' W 079°57'1414.2
2017-Jan-07 23:33N 25°45' W 080°03'6 6.1
2017-Jan-07 22:31N 25°47' W 080°10'0 0.0
2017-Jan-07 21:33N 25°47' W 080°10'0 0.0
2017-Jan-07 20:33N 25°47' W 080°10'0 0.0
2017-Jan-07 19:29N 25°47' W 080°10'0 0.0
2017-Jan-07 18:32N 25°47' W 080°10'0 0.0
2017-Jan-07 17:31N 25°47' W 080°10'0 0.0
2017-Jan-07 16:31N 25°47' W 080°10'0 0.0
2017-Jan-07 15:34N 25°47' W 080°10'0 0.0
2017-Jan-07 14:33N 25°47' W 080°10'0 0.0
2017-Jan-07 13:33N 25°47' W 080°10'0 0.3
2017-Jan-07 12:33N 25°47' W 080°11'7 7.2
2017-Jan-07 11:33N 25°47' W 080°03'8 8.0
2017-Jan-07 10:34N 25°51' W 079°55'1110.8
2017-Jan-07 09:34N 25°57' W 079°45'1212.3
2017-Jan-07 08:33N 26°03' W 079°33'  
Track history (hours):
 
Tides and Currents Weather Stations Pressure Air Temp Water Temp Dewpoint Dewpoint Depression Visibility Wind Speed Wind Dir Waves Ship Positions

Sensation

Last reported at 2017-Jan-17 03:32 UTC. Time now 2017-Jan-21 04:26 UTC.
Position N 26°19' W 079°28'.

Type: Ship. MMSI: 309697000.

Date/timePositionNaut miles runAvg speedWind from/ knotsBaromVisibWave heightAir tempDewpointWater temp
2017-Jan-17 03:32N 26°19' W 079°28'1211.8
2017-Jan-17 02:32N 26°07' W 079°30'1010.4
2017-Jan-17 01:33N 26°00' W 079°39'1110.7
2017-Jan-17 00:33N 25°55' W 079°49'1111.0
2017-Jan-16 23:33N 25°49' W 079°59'10 9.5
2017-Jan-16 22:34N 25°46' W 080°09'1 1.0
2017-Jan-16 21:33N 25°47' W 080°10'0 0.0
2017-Jan-16 20:33N 25°47' W 080°10'0 0.0
2017-Jan-16 19:32N 25°47' W 080°10'0 0.0
2017-Jan-16 18:32N 25°47' W 080°10'0 0.0
2017-Jan-16 17:31N 25°47' W 080°10'0 0.0
2017-Jan-16 16:31N 25°47' W 080°10'0 0.0
2017-Jan-16 15:31N 25°47' W 080°10'0 0.0
2017-Jan-16 14:30N 25°47' W 080°10'0 0.0
2017-Jan-16 13:33N 25°47' W 080°10'0 0.0
2017-Jan-16 12:33N 25°47' W 080°10'7 7.4
2017-Jan-16 11:33N 25°47' W 080°02'1211.6
2017-Jan-16 10:34N 25°36' W 079°56'48116.0
2017-Jan-15 04:31N 20°44' W 086°51'1515.3
2017-Jan-15 03:33N 20°32' W 086°60'3 3.0
2017-Jan-15 02:32N 20°29' W 086°59'0 0.0
2017-Jan-15 01:32N 20°29' W 086°59'0 0.0
2017-Jan-15 00:32N 20°29' W 086°59'0 0.0
2017-Jan-14 23:25N 20°29' W 086°59'0 0.0
2017-Jan-14 22:31N 20°29' W 086°59'0 0.0
2017-Jan-14 21:33N 20°29' W 086°59'0 0.0
2017-Jan-14 20:33N 20°29' W 086°59'0 0.0
2017-Jan-14 19:32N 20°29' W 086°59'0 0.0
2017-Jan-14 18:29N 20°29' W 086°59'0 0.0
2017-Jan-14 17:29N 20°29' W 086°59'1 0.8
2017-Jan-14 16:33N 20°29' W 086°59'1010.0
2017-Jan-14 15:33N 20°38' W 086°54'48312.4
2017-Jan-13 00:32N 25°19' W 079°48'1313.4
2017-Jan-12 23:33N 25°32' W 079°48'1313.2
2017-Jan-12 22:34N 25°41' W 079°59'1010.5
2017-Jan-12 21:34N 25°46' W 080°09'1 0.8
2017-Jan-12 20:31N 25°47' W 080°10'0 0.0
2017-Jan-12 19:31N 25°47' W 080°10'0 0.0
2017-Jan-12 18:33N 25°47' W 080°10'0 0.0
2017-Jan-12 17:33N 25°47' W 080°10'0 0.0
2017-Jan-12 16:32N 25°47' W 080°10'0 0.0
2017-Jan-12 15:32N 25°47' W 080°10'0 0.0
2017-Jan-12 14:32N 25°47' W 080°10'0 0.0
2017-Jan-12 13:32N 25°47' W 080°10'1 0.8
2017-Jan-12 12:33N 25°47' W 080°11'8 8.1
2017-Jan-12 11:34N 25°47' W 080°02'7 7.1
2017-Jan-12 10:33N 25°42' W 079°56'8 8.3
2017-Jan-12 09:34N 25°43' W 079°47'1110.9
2017-Jan-12 08:33N 25°34' W 079°40'7 3.7
2017-Jan-12 06:33N 25°28' W 079°35'9 8.7
2017-Jan-12 05:33N 25°37' W 079°35'9 8.7
2017-Jan-12 04:33N 25°46' W 079°35'15 0.8
2017-Jan-11 09:33N 26°00' W 079°29'1717.4
2017-Jan-11 08:33N 25°44' W 079°35'32816.0
2017-Jan-10 12:00N 22°36' W 084°30'17714.3 120 / 201025.010.8 21.016.425.8
2017-Jan-09 23:34N 20°40' W 086°55'1211.9
2017-Jan-09 22:33N 20°29' W 086°59'0 0.5
2017-Jan-09 21:32N 20°29' W 086°59'0 0.0
2017-Jan-09 20:31N 20°29' W 086°59'0 0.0
2017-Jan-09 19:31N 20°29' W 086°59'0 0.0
2017-Jan-09 18:34N 20°29' W 086°59'0 0.0
2017-Jan-09 17:33N 20°29' W 086°59'0 0.0
2017-Jan-09 16:33N 20°29' W 086°59'0 0.0
2017-Jan-09 15:32N 20°29' W 086°59'0 0.0
2017-Jan-09 14:32N 20°29' W 086°59'0 0.0
2017-Jan-09 13:31N 20°29' W 086°59'0 0.0
2017-Jan-09 12:33N 20°29' W 086°59'6 5.8
2017-Jan-09 11:34N 20°34' W 086°58'47914.1
2017-Jan-08 01:33N 25°16' W 079°57'1616.1
2017-Jan-08 00:34N 25°32' W 079°57'1414.2
2017-Jan-07 23:33N 25°45' W 080°03'6 6.1
2017-Jan-07 22:31N 25°47' W 080°10'0 0.0
2017-Jan-07 21:33N 25°47' W 080°10'0 0.0
2017-Jan-07 20:33N 25°47' W 080°10'0 0.0
2017-Jan-07 19:29N 25°47' W 080°10'0 0.0
2017-Jan-07 18:32N 25°47' W 080°10'0 0.0
2017-Jan-07 17:31N 25°47' W 080°10'0 0.0
2017-Jan-07 16:31N 25°47' W 080°10'0 0.0
2017-Jan-07 15:34N 25°47' W 080°10'0 0.0
2017-Jan-07 14:33N 25°47' W 080°10'0 0.0
2017-Jan-07 13:33N 25°47' W 080°10'0 0.3
2017-Jan-07 12:33N 25°47' W 080°11'7 7.2
2017-Jan-07 11:33N 25°47' W 080°03'8 8.0
2017-Jan-07 10:34N 25°51' W 079°55'1110.8
2017-Jan-07 09:34N 25°57' W 079°45'1212.3
2017-Jan-07 08:33N 26°03' W 079°33'  

Dump ship's entire track history